Time;durP1;ratioP1;P1;durP2;ratioP2;P2;SDS_P1;SDS_P2;PMS_P1;PMS_P2;Temp;Humidity;BMP_temperature;BMP_pressure;BME280_temperature;BME280_humidity;BME280_pressure;Samples;Min_cycle;Max_cycle;Signal;HPM_P1;HPM_P2
2022/02/15 00:01:50;;;;;;;10.70;6.90;;;230.60;2252.80;;;;;;4972413;28;20046;-62
2022/02/15 00:04:16;;;;;;;7.50;5.20;;;230.50;2252.80;;;;;;4974114;28;20026;-62
2022/02/15 00:06:42;;;;;;;8.48;5.07;;;230.50;2252.80;;;;;;4973664;28;20035;-63
2022/02/15 00:09:08;;;;;;;10.63;5.35;;;230.60;2252.80;;;;;;4973662;28;20034;-61
2022/02/15 00:11:34;;;;;;;22.88;11.43;;;230.60;2252.80;;;;;;4973606;28;20027;-62
2022/02/15 00:14:00;;;;;;;12.48;6.90;;;230.60;2252.80;;;;;;4973454;28;20027;-62
2022/02/15 00:16:26;;;;;;;27.33;17.75;;;230.60;2252.80;;;;;;4973331;28;20085;-62
2022/02/15 00:18:51;;;;;;;26.42;18.80;;;230.60;2252.80;;;;;;4973504;28;20023;-62
2022/02/15 00:21:17;;;;;;;159.52;82.03;;;230.70;2252.80;;;;;;4973056;28;20023;-61
2022/02/15 00:23:43;;;;;;;29.25;16.75;;;230.70;2252.80;;;;;;4972856;28;20027;-64
2022/02/15 00:26:09;;;;;;;17.45;10.57;;;230.80;2252.80;;;;;;4954881;28;20030;-64
2022/02/15 00:28:34;;;;;;;23.98;15.20;;;230.90;2252.80;;;;;;4971827;28;20042;-62
2022/02/15 00:31:00;;;;;;;13.93;10.85;;;230.80;2252.80;;;;;;4972758;28;20035;-62
2022/02/15 00:33:26;;;;;;;37.75;19.13;;;230.80;2252.80;;;;;;4972802;28;20114;-61
2022/02/15 00:35:52;;;;;;;11.07;6.40;;;230.70;2252.80;;;;;;4971988;28;20014;-62
2022/02/15 00:38:17;;;;;;;9.68;6.85;;;230.80;2252.80;;;;;;4971690;28;20701;-62
2022/02/15 00:40:43;;;;;;;6.60;4.88;;;230.70;2252.80;;;;;;4969247;28;20426;-61
2022/02/15 00:43:09;;;;;;;9.32;6.22;;;230.60;2252.80;;;;;;4971744;28;20029;-62
2022/02/15 00:45:35;;;;;;;8.75;5.95;;;230.60;2252.80;;;;;;4971627;28;20027;-62
2022/02/15 00:48:01;;;;;;;11.30;7.22;;;230.70;2252.80;;;;;;4971077;28;20378;-61
2022/02/15 00:50:27;;;;;;;9.90;5.63;;;230.70;2252.80;;;;;;4971220;28;20576;-61
2022/02/15 00:52:53;;;;;;;8.27;4.20;;;230.70;2252.80;;;;;;4971583;28;20106;-63
2022/02/15 00:55:19;;;;;;;7.55;4.90;;;230.80;2252.80;;;;;;4971362;28;20070;-61
2022/02/15 00:57:44;;;;;;;9.45;5.22;;;230.80;2252.80;;;;;;4971188;28;20389;-62
2022/02/15 01:00:12;;;;;;;9.68;6.68;;;230.80;2252.80;;;;;;4971367;28;20046;-61
2022/02/15 01:02:38;;;;;;;13.77;7.97;;;230.70;2252.80;;;;;;4970770;28;20027;-62
2022/02/15 01:05:05;;;;;;;10.40;7.03;;;230.60;2252.80;;;;;;4971437;28;20042;-62
2022/02/15 01:07:31;;;;;;;13.85;7.97;;;230.60;2252.80;;;;;;4971224;28;20510;-61
2022/02/15 01:09:56;;;;;;;39.15;22.85;;;230.60;2252.80;;;;;;4970819;28;20058;-62
2022/02/15 01:12:22;;;;;;;28.17;16.98;;;230.50;2252.80;;;;;;4971384;28;20027;-62
2022/02/15 01:14:48;;;;;;;28.60;19.80;;;230.50;2252.80;;;;;;4971067;28;20030;-61
2022/02/15 01:17:14;;;;;;;83.15;53.35;;;205.70;2252.80;;;;;;4970901;28;20034;-62
2022/02/15 01:19:40;;;;;;;48.00;29.58;;;205.40;2252.80;;;;;;4971604;28;20037;-62
2022/02/15 01:22:06;;;;;;;34.33;21.50;;;205.40;2252.80;;;;;;4971199;28;20034;-61
2022/02/15 01:24:32;;;;;;;36.70;21.45;;;205.30;2252.80;;;;;;4971899;28;20030;-61
2022/02/15 01:26:58;;;;;;;48.08;26.90;;;205.30;2252.80;;;;;;4971210;28;20050;-61
2022/02/15 01:29:24;;;;;;;51.97;32.53;;;205.30;2252.80;;;;;;4970832;28;20497;-61
2022/02/15 01:31:52;;;;;;;103.95;58.83;;;205.30;2252.80;;;;;;4971395;28;20038;-62
2022/02/15 01:34:18;;;;;;;53.75;34.05;;;205.20;2252.80;;;;;;4971160;28;20393;-62
2022/02/15 01:36:44;;;;;;;25.08;16.58;;;205.30;2252.80;;;;;;4971185;28;20068;-62
2022/02/15 01:39:10;;;;;;;22.83;13.43;;;205.40;2252.80;;;;;;4971262;28;20050;-63
2022/02/15 01:41:36;;;;;;;15.38;11.40;;;205.30;2252.80;;;;;;4971063;28;20038;-62
2022/02/15 01:44:02;;;;;;;16.38;9.38;;;205.40;2252.80;;;;;;4970967;28;20385;-62
2022/02/15 01:46:27;;;;;;;11.20;6.22;;;205.50;2252.80;;;;;;4970824;28;20051;-62
2022/02/15 01:48:53;;;;;;;12.38;8.80;;;230.40;2252.80;;;;;;4971042;28;20385;-62
2022/02/15 01:51:20;;;;;;;7.93;6.07;;;230.50;2252.80;;;;;;4970744;28;20513;-63
2022/02/15 01:53:46;;;;;;;19.55;11.07;;;230.50;2252.80;;;;;;4970820;28;20023;-62
2022/02/15 01:56:13;;;;;;;17.45;13.30;;;230.50;2252.80;;;;;;4970926;28;20029;-61
2022/02/15 01:58:42;;;;;;;24.75;14.05;;;230.60;2252.80;;;;;;4970751;28;20477;-62
2022/02/15 02:01:07;;;;;;;36.80;20.25;;;230.60;2252.80;;;;;;4970611;28;20055;-63
2022/02/15 02:03:33;;;;;;;31.80;19.60;;;230.40;2252.80;;;;;;4970614;28;20393;-61
2022/02/15 02:05:59;;;;;;;39.33;22.40;;;230.40;2252.80;;;;;;4970360;28;20556;-62
2022/02/15 02:08:31;;;;;;;24.17;13.68;;;205.70;2252.80;;;;;;4970435;28;20031;-63
2022/02/15 02:10:58;;;;;;;25.98;14.38;;;205.70;2252.80;;;;;;4970484;28;20062;-62
2022/02/15 02:13:24;;;;;;;29.80;15.45;;;205.70;2252.80;;;;;;4970088;28;20390;-62
2022/02/15 02:15:50;;;;;;;14.98;10.30;;;205.70;2252.80;;;;;;4970535;28;20031;-61
2022/02/15 02:18:16;;;;;;;28.55;16.92;;;205.60;2252.80;;;;;;4970279;28;20026;-62
2022/02/15 02:20:42;;;;;;;26.23;15.73;;;205.70;2252.80;;;;;;4970543;28;20039;-62
2022/02/15 02:23:17;;;;;;;18.50;11.30;;;205.70;2252.80;;;;;;4970420;28;20023;-62
2022/02/15 02:25:43;;;;;;;42.50;23.58;;;205.70;2252.80;;;;;;4970619;28;20034;-62
2022/02/15 02:28:09;;;;;;;24.25;13.30;;;205.70;2252.80;;;;;;4970314;28;20039;-62
2022/02/15 02:30:36;;;;;;;23.70;13.77;;;205.70;2252.80;;;;;;4970199;28;20114;-62
2022/02/15 02:33:02;;;;;;;33.97;19.90;;;205.60;2252.80;;;;;;4970361;28;20496;-62
2022/02/15 02:35:28;;;;;;;14.23;9.40;;;205.60;2252.80;;;;;;4970431;28;20023;-62
2022/02/15 02:37:54;;;;;;;27.80;17.05;;;205.60;2252.80;;;;;;4970387;28;20023;-62
2022/02/15 02:40:20;;;;;;;15.13;10.38;;;205.60;2252.80;;;;;;4970378;28;20548;-61
2022/02/15 02:42:46;;;;;;;10.07;7.32;;;205.70;2252.80;;;;;;4970102;28;20031;-62
2022/02/15 02:45:18;;;;;;;17.40;9.80;;;205.70;2252.80;;;;;;4970422;28;20470;-64
2022/02/15 02:47:45;;;;;;;12.10;7.93;;;230.40;2252.80;;;;;;4970273;28;20046;-63
2022/02/15 02:50:13;;;;;;;22.60;12.25;;;230.50;2252.80;;;;;;4970620;28;20030;-62
2022/02/15 02:52:39;;;;;;;13.38;8.00;;;230.50;2252.80;;;;;;4970095;28;20142;-62
2022/02/15 02:55:06;;;;;;;24.48;14.80;;;230.50;2252.80;;;;;;4969950;28;20027;-62
2022/02/15 02:57:35;;;;;;;21.98;12.70;;;230.40;2252.80;;;;;;4970189;28;20063;-62
2022/02/15 03:00:11;;;;;;;14.05;6.70;;;230.50;2252.80;;;;;;4952694;28;20051;-62
2022/02/15 03:02:37;;;;;;;16.10;10.27;;;230.60;2252.80;;;;;;4970124;28;20039;-62
2022/02/15 03:05:03;;;;;;;19.67;12.43;;;230.50;2252.80;;;;;;4970347;28;20420;-63
2022/02/15 03:07:29;;;;;;;22.77;12.18;;;230.50;2252.80;;;;;;4969907;28;20111;-62
2022/02/15 03:09:56;;;;;;;23.40;12.98;;;230.40;2252.80;;;;;;4970000;28;20031;-63
2022/02/15 03:12:22;;;;;;;28.05;16.50;;;230.40;2252.80;;;;;;4969968;28;20392;-62
2022/02/15 03:14:48;;;;;;;18.80;11.00;;;205.70;2252.80;;;;;;4969615;28;20418;-63
2022/02/15 03:17:16;;;;;;;22.55;13.55;;;205.70;2252.80;;;;;;4969770;28;20061;-63
2022/02/15 03:19:42;;;;;;;22.75;13.35;;;205.70;2252.80;;;;;;4970008;28;20037;-62
2022/02/15 03:22:08;;;;;;;23.98;13.75;;;205.60;2252.80;;;;;;4969724;28;20022;-62
2022/02/15 03:24:34;;;;;;;17.23;8.90;;;205.50;2252.80;;;;;;4970468;28;20037;-62
2022/02/15 03:27:00;;;;;;;8.65;6.22;;;205.50;2252.80;;;;;;4972983;28;20042;-62
2022/02/15 03:29:26;;;;;;;12.77;5.50;;;205.70;2252.80;;;;;;4955765;28;20449;-63
2022/02/15 03:31:52;;;;;;;7.80;5.55;;;205.70;2252.80;;;;;;4973282;28;20062;-63
2022/02/15 03:34:18;;;;;;;9.68;6.05;;;230.40;2252.80;;;;;;4972941;28;20477;-63
2022/02/15 03:36:44;;;;;;;31.55;16.23;;;230.50;2252.80;;;;;;4973201;28;20031;-63
2022/02/15 03:39:10;;;;;;;29.02;16.35;;;230.40;2252.80;;;;;;4973300;28;20085;-63
2022/02/15 03:44:21;;;;;;;9.77;6.70;;;205.60;2252.80;;;;;;4973212;28;20049;-63
2022/02/15 03:46:48;;;;;;;12.63;7.80;;;205.70;2252.80;;;;;;4972997;28;20536;-63
2022/02/15 03:49:14;;;;;;;13.75;9.48;;;230.40;2252.80;;;;;;4973268;28;20026;-63
2022/02/15 03:51:40;;;;;;;10.77;7.15;;;230.60;2252.80;;;;;;4973355;28;20035;-62
2022/02/15 03:54:07;;;;;;;9.48;5.95;;;230.70;2252.80;;;;;;4973158;28;20062;-63
2022/02/15 03:56:33;;;;;;;11.68;6.85;;;230.80;2252.80;;;;;;4975292;28;20069;-62
2022/02/15 03:59:00;;;;;;;11.13;9.32;;;230.70;2252.80;;;;;;4972581;28;20425;-63
2022/02/15 04:01:26;;;;;;;16.02;9.88;;;230.70;2252.80;;;;;;4972510;28;20066;-63
2022/02/15 04:03:52;;;;;;;14.43;8.07;;;230.70;2252.80;;;;;;4972788;28;20023;-63
2022/02/15 04:06:18;;;;;;;10.40;6.10;;;230.70;2252.80;;;;;;4972243;28;20063;-62
2022/02/15 04:08:43;;;;;;;11.20;7.10;;;230.70;2252.80;;;;;;4972748;28;20027;-63
2022/02/15 04:11:09;;;;;;;14.82;9.48;;;230.70;2252.80;;;;;;4972644;28;20046;-63
2022/02/15 04:13:35;;;;;;;9.38;5.50;;;230.70;2252.80;;;;;;4972457;28;20118;-63
2022/02/15 04:16:01;;;;;;;12.93;8.63;;;230.80;2252.80;;;;;;4972458;28;20116;-63
2022/02/15 04:18:26;;;;;;;17.17;9.38;;;230.60;2252.80;;;;;;4972273;28;20031;-63
2022/02/15 04:20:52;;;;;;;26.65;20.65;;;230.70;2252.80;;;;;;4972570;28;20027;-64
2022/02/15 04:23:18;;;;;;;17.80;10.57;;;230.70;2252.80;;;;;;4972480;28;20437;-63
2022/02/15 04:25:44;;;;;;;14.90;9.40;;;205.60;2252.80;;;;;;4972565;28;20417;-63
2022/02/15 04:28:10;;;;;;;15.23;9.63;;;205.50;2252.80;;;;;;4972219;28;20097;-63
2022/02/15 04:30:35;;;;;;;27.05;15.63;;;205.30;2252.80;;;;;;4971891;28;20031;-65
2022/02/15 04:33:02;;;;;;;18.02;11.18;;;205.30;2252.80;;;;;;4955360;28;20085;-63
2022/02/15 04:35:28;;;;;;;42.58;27.38;;;205.40;2252.80;;;;;;4972269;28;20030;-62
2022/02/15 04:37:54;;;;;;;35.00;21.30;;;205.30;2252.80;;;;;;4971506;28;20470;-63
2022/02/15 04:40:20;;;;;;;43.20;24.67;;;205.20;2252.80;;;;;;4972049;28;20026;-61
2022/02/15 04:42:46;;;;;;;33.03;19.08;;;205.20;2252.80;;;;;;4971964;28;20385;-62
2022/02/15 04:45:12;;;;;;;27.42;16.38;;;204.90;2252.80;;;;;;4972088;28;20461;-63
2022/02/15 04:47:40;;;;;;;29.15;19.10;;;205.00;2252.80;;;;;;4971899;28;20039;-62
2022/02/15 04:50:07;;;;;;;42.97;23.02;;;205.00;2252.80;;;;;;4971841;28;20066;-63
2022/02/15 04:52:33;;;;;;;24.55;12.50;;;180.10;2252.80;;;;;;4954844;28;20042;-63
2022/02/15 04:54:58;;;;;;;20.10;11.45;;;180.10;2252.80;;;;;;4971577;28;20019;-62
2022/02/15 04:57:24;;;;;;;19.80;13.32;;;204.90;2252.80;;;;;;4971851;28;20401;-62
2022/02/15 04:59:50;;;;;;;15.77;8.10;;;205.00;2252.80;;;;;;4971401;28;20501;-62
2022/02/15 05:02:15;;;;;;;27.58;13.00;;;205.20;2252.80;;;;;;4971473;28;20023;-63
2022/02/15 05:04:50;;;;;;;16.48;10.40;;;205.10;2252.80;;;;;;4971988;28;20029;-62
2022/02/15 05:07:22;;;;;;;26.48;18.35;;;205.00;2252.80;;;;;;4971253;28;20085;-63
2022/02/15 05:09:48;;;;;;;19.75;11.38;;;204.80;2252.80;;;;;;4971455;28;20056;-62
2022/02/15 05:12:14;;;;;;;19.10;11.23;;;180.10;2252.80;;;;;;4971587;28;20071;-63
2022/02/15 05:14:41;;;;;;;24.75;14.25;;;180.10;2252.80;;;;;;4971575;28;20058;-62
2022/02/15 05:17:07;;;;;;;27.52;15.43;;;180.10;2252.80;;;;;;4971542;28;20413;-62
2022/02/15 05:19:34;;;;;;;26.33;14.63;;;204.80;2252.80;;;;;;4971500;28;20477;-62
2022/02/15 05:22:01;;;;;;;29.98;15.15;;;204.90;2252.80;;;;;;4971060;28;20038;-62
2022/02/15 05:24:26;;;;;;;15.27;9.90;;;205.10;2252.80;;;;;;4971156;28;20033;-62
2022/02/15 05:26:53;;;;;;;20.50;12.80;;;204.90;2252.80;;;;;;4971367;28;20030;-62
2022/02/15 05:29:18;;;;;;;20.95;13.10;;;205.00;2252.80;;;;;;4970885;28;20444;-62
2022/02/15 05:31:47;;;;;;;29.92;17.92;;;204.90;2252.80;;;;;;4971091;28;20026;-63
2022/02/15 05:34:14;;;;;;;49.83;29.17;;;204.90;2252.80;;;;;;4971446;28;20146;-63
2022/02/15 05:36:39;;;;;;;33.75;19.95;;;204.90;2252.80;;;;;;4971082;28;20465;-62
2022/02/15 05:39:05;;;;;;;22.30;16.40;;;204.80;2252.80;;;;;;4970863;28;20033;-63
2022/02/15 05:41:31;;;;;;;22.88;14.27;;;180.10;2252.80;;;;;;4971100;28;20030;-62
2022/02/15 05:43:57;;;;;;;16.02;12.10;;;180.10;2252.80;;;;;;4970653;28;20038;-64
2022/02/15 05:46:22;;;;;;;15.73;11.05;;;204.80;2252.80;;;;;;4970893;28;20385;-63
2022/02/15 05:48:48;;;;;;;19.10;15.27;;;180.10;2252.80;;;;;;4970017;28;20069;-63
2022/02/15 05:51:14;;;;;;;23.20;16.80;;;179.90;2252.80;;;;;;4971035;28;21081;-63
2022/02/15 05:53:40;;;;;;;38.38;22.98;;;179.90;2252.80;;;;;;4970648;28;20019;-62
2022/02/15 05:56:06;;;;;;;41.50;27.90;;;179.80;2252.80;;;;;;4970610;28;20113;-62
2022/02/15 05:58:35;;;;;;;77.65;42.55;;;179.60;2252.80;;;;;;4970440;28;20110;-61
2022/02/15 06:01:01;;;;;;;52.85;31.63;;;179.80;2252.80;;;;;;4970454;28;20055;-62
2022/02/15 06:06:11;;;;;;;95.10;56.17;;;179.90;2252.80;;;;;;4970863;28;20029;-62
2022/02/15 06:08:37;;;;;;;64.22;40.47;;;180.00;2252.80;;;;;;4970484;28;20039;-62
2022/02/15 06:11:03;;;;;;;59.85;40.08;;;180.10;2252.80;;;;;;4970556;28;20023;-62
2022/02/15 06:13:30;;;;;;;49.47;32.40;;;180.00;2252.80;;;;;;4970216;28;20086;-62
2022/02/15 06:15:55;;;;;;;48.40;31.65;;;179.90;2252.80;;;;;;4970304;28;20027;-62
2022/02/15 06:18:21;;;;;;;51.00;32.20;;;180.00;2252.80;;;;;;4970449;28;20438;-62
2022/02/15 06:20:48;;;;;;;53.30;31.90;;;204.80;2252.80;;;;;;4970238;28;20030;-62
2022/02/15 06:23:14;;;;;;;447.33;277.55;;;204.90;2252.80;;;;;;4970376;28;20045;-63
2022/02/15 06:25:40;;;;;;;68.95;47.10;;;204.90;2252.80;;;;;;4970459;28;20035;-63
2022/02/15 06:28:05;;;;;;;65.45;41.17;;;204.80;2252.80;;;;;;4969984;28;20042;-63
2022/02/15 06:30:31;;;;;;;203.98;147.68;;;205.00;2252.80;;;;;;4970064;28;20114;-63
2022/02/15 06:32:57;;;;;;;98.20;63.45;;;205.20;2252.80;;;;;;4970496;28;20481;-61
2022/02/15 06:35:23;;;;;;;128.35;84.35;;;205.50;2252.80;;;;;;4953265;28;20084;-63
2022/02/15 06:37:50;;;;;;;135.70;87.88;;;205.50;2252.80;;;;;;4970344;28;20039;-63
2022/02/15 06:40:18;;;;;;;108.20;66.43;;;205.60;2252.80;;;;;;4969767;28;20466;-63
2022/02/15 06:42:45;;;;;;;314.85;220.77;;;205.50;2252.80;;;;;;4970200;28;20034;-63
2022/02/15 06:45:12;;;;;;;189.30;128.88;;;205.50;2252.80;;;;;;4970403;28;20027;-63
2022/02/15 06:47:38;;;;;;;403.23;275.70;;;205.50;2252.80;;;;;;4970240;28;20050;-62
2022/02/15 06:50:05;;;;;;;207.73;144.70;;;205.50;2252.80;;;;;;4970280;28;20031;-62
2022/02/15 06:52:31;;;;;;;154.52;107.05;;;205.60;2252.80;;;;;;4970158;28;20110;-63
2022/02/15 06:54:57;;;;;;;79.63;56.22;;;230.60;2252.80;;;;;;4970061;28;20110;-63
2022/02/15 06:57:23;;;;;;;58.90;39.90;;;230.70;2252.80;;;;;;4970001;28;20038;-63
2022/02/15 06:59:49;;;;;;;114.53;84.22;;;230.80;2252.80;;;;;;4949822;28;20047;-64
2022/02/15 07:02:18;;;;;;;82.38;57.53;;;231.00;2252.80;;;;;;4954479;29;20366;-64
2022/02/15 07:04:45;;;;;;;45.10;30.02;;;230.90;2252.80;;;;;;4954516;29;20086;-64
2022/02/15 07:07:10;;;;;;;44.42;30.50;;;231.00;2252.80;;;;;;4953251;29;20051;-62
2022/02/15 07:09:36;;;;;;;39.72;26.35;;;230.90;2252.80;;;;;;4954345;29;20035;-64
2022/02/15 07:12:02;;;;;;;76.25;50.63;;;231.30;2252.80;;;;;;4954536;29;20130;-63
2022/02/15 07:14:28;;;;;;;63.55;44.78;;;256.00;2252.80;;;;;;4954121;29;20031;-63
2022/02/15 07:16:53;;;;;;;101.93;66.97;;;256.30;2252.80;;;;;;4954624;29;20035;-63
2022/02/15 07:19:19;;;;;;;101.55;67.30;;;256.40;2252.80;;;;;;4954331;29;20466;-63
2022/02/15 07:21:46;;;;;;;102.60;68.85;;;256.10;2252.80;;;;;;4954087;29;20035;-63
2022/02/15 07:24:13;;;;;;;136.32;100.95;;;256.40;2252.80;;;;;;4954366;29;20073;-63
2022/02/15 07:26:38;;;;;;;77.85;58.40;;;256.50;2252.80;;;;;;4954123;29;20035;-63
2022/02/15 07:29:04;;;;;;;164.48;120.70;;;256.60;2252.80;;;;;;4954015;29;20039;-63
2022/02/15 07:31:30;;;;;;;105.97;69.80;;;256.10;2252.80;;;;;;4954091;29;20418;-62
2022/02/15 07:33:55;;;;;;;77.35;52.92;;;256.20;2252.80;;;;;;4953931;29;20062;-63
2022/02/15 07:36:21;;;;;;;182.25;131.57;;;256.20;2252.80;;;;;;4954155;29;20089;-63
2022/02/15 07:38:47;;;;;;;91.72;63.97;;;256.30;2252.80;;;;;;4952630;29;20122;-63
2022/02/15 07:41:15;;;;;;;88.10;59.88;;;256.10;2252.80;;;;;;4954026;29;20023;-62
2022/02/15 07:43:40;;;;;;;87.85;59.10;;;256.10;2252.80;;;;;;4953992;29;20110;-62
2022/02/15 07:46:06;;;;;;;104.55;73.65;;;256.20;2252.80;;;;;;4953538;29;20181;-62
2022/02/15 07:48:34;;;;;;;140.07;97.40;;;256.20;2252.80;;;;;;4954169;29;20027;-63
2022/02/15 07:51:00;;;;;;;185.73;138.85;;;256.20;2252.80;;;;;;4953819;29;20024;-63
2022/02/15 07:53:26;;;;;;;154.00;112.80;;;256.30;2252.80;;;;;;4953587;29;20035;-63
2022/02/15 07:55:52;;;;;;;150.73;106.47;;;256.20;2252.80;;;;;;4953721;29;20355;-63
2022/02/15 07:58:17;;;;;;;355.10;240.52;;;256.40;2252.80;;;;;;4953244;29;20031;-63
2022/02/15 08:00:43;;;;;;;131.57;88.18;;;256.60;2252.80;;;;;;4964912;28;20101;-63
2022/02/15 08:03:10;;;;;;;87.95;58.38;;;256.70;2252.80;;;;;;4972606;28;20023;-63
2022/02/15 08:05:39;;;;;;;73.45;51.45;;;256.70;2252.80;;;;;;4972838;28;20039;-63
2022/02/15 08:08:05;;;;;;;70.50;47.92;;;256.80;2252.80;;;;;;4972526;28;20041;-62
2022/02/15 08:10:31;;;;;;;116.53;82.32;;;256.80;2252.80;;;;;;4972440;28;20023;-63
2022/02/15 08:13:01;;;;;;;185.38;133.07;;;256.70;2252.80;;;;;;4971592;28;20023;-63
2022/02/15 08:15:30;;;;;;;122.78;100.22;;;256.70;2252.80;;;;;;4972506;28;20131;-63
2022/02/15 08:17:57;;;;;;;163.38;124.20;;;256.80;2252.80;;;;;;4972063;28;20053;-62
2022/02/15 08:20:24;;;;;;;42.80;28.38;;;256.60;2252.80;;;;;;4972189;28;20026;-60
2022/02/15 08:22:50;;;;;;;58.40;40.63;;;281.70;2278.40;;;;;;4971766;28;20465;-63
2022/02/15 08:25:17;;;;;;;70.18;47.90;;;281.60;2278.40;;;;;;4971809;28;20022;-62
2022/02/15 08:27:44;;;;;;;152.90;107.55;;;281.80;2278.40;;;;;;4971868;28;20063;-62
2022/02/15 08:30:11;;;;;;;142.40;100.43;;;281.80;2278.40;;;;;;4972137;28;20019;-60
2022/02/15 08:32:36;;;;;;;53.58;38.40;;;256.90;2252.80;;;;;;4971382;28;20397;-60
2022/02/15 08:35:03;;;;;;;59.42;44.53;;;281.80;2278.40;;;;;;4971368;28;20023;-63
2022/02/15 08:37:32;;;;;;;67.72;46.20;;;307.50;2304.00;;;;;;4970948;28;20030;-63
2022/02/15 08:39:58;;;;;;;76.15;53.03;;;307.60;2304.00;;;;;;4971985;28;20420;-61
2022/02/15 08:42:24;;;;;;;39.47;30.45;;;307.40;2304.00;;;;;;4970358;28;20042;-62
2022/02/15 08:44:53;;;;;;;29.75;22.10;;;307.40;2304.00;;;;;;4969791;28;20030;-62
2022/02/15 08:47:21;;;;;;;63.20;46.83;;;307.60;2304.00;;;;;;4964314;28;20441;-61
2022/02/15 08:49:54;;;;;;;95.35;67.78;;;307.60;2304.00;;;;;;4965632;28;20234;-62
2022/02/15 08:52:23;;;;;;;40.95;29.40;;;307.60;2304.00;;;;;;4964042;28;20045;-62
2022/02/15 08:54:52;;;;;;;30.13;27.23;;;307.40;2304.00;;;;;;4968363;28;20054;-62
2022/02/15 08:57:18;;;;;;;409.42;277.50;;;307.60;2304.00;;;;;;4968591;28;20042;-61
2022/02/15 08:59:44;;;;;;;985.15;675.15;;;307.70;2304.00;;;;;;4970615;28;20126;-62
2022/02/15 09:02:10;;;;;;;202.35;142.98;;;308.00;2278.40;;;;;;4970151;28;20763;-62
2022/02/15 09:04:36;;;;;;;57.20;45.08;;;308.00;2252.80;;;;;;4971830;28;20113;-62
2022/02/15 09:07:05;;;;;;;23.13;19.63;;;308.10;2252.80;;;;;;4972242;28;20257;-62
2022/02/15 09:09:31;;;;;;;16.35;12.93;;;332.80;2252.80;;;;;;4971928;28;20033;-62
2022/02/15 09:11:56;;;;;;;27.90;16.83;;;332.90;2227.20;;;;;;4971700;28;20027;-62
2022/02/15 09:14:22;;;;;;;13.50;12.10;;;333.10;2227.20;;;;;;4972352;28;20019;-61
2022/02/15 09:16:48;;;;;;;15.98;14.40;;;333.20;2201.60;;;;;;4971984;28;20058;-62
2022/02/15 09:19:14;;;;;;;28.17;18.23;;;333.30;2150.40;;;;;;4971991;28;20517;-63
2022/02/15 09:21:40;;;;;;;21.67;15.52;;;333.40;2150.40;;;;;;4971995;28;20429;-57
2022/02/15 09:24:09;;;;;;;17.52;13.52;;;333.40;2124.80;;;;;;4971493;28;20474;-57
2022/02/15 09:26:35;;;;;;;28.58;23.42;;;333.50;2124.80;;;;;;4971858;28;20030;-56
2022/02/15 09:29:03;;;;;;;30.02;23.92;;;333.60;2099.20;;;;;;4953323;28;20438;-56
2022/02/15 09:31:28;;;;;;;25.95;17.48;;;358.80;2048.00;;;;;;4971980;28;20474;-56
2022/02/15 09:33:54;;;;;;;22.90;16.45;;;384.70;1868.80;;;;;;4973425;28;20045;-56
2022/02/15 09:36:26;;;;;;;26.77;19.08;;;410.20;1817.60;;;;;;4971617;28;20027;-61
2022/02/15 09:38:52;;;;;;;27.83;20.85;;;435.30;1740.80;;;;;;4970993;28;20034;-63
2022/02/15 09:41:18;;;;;;;17.20;13.50;;;410.50;1740.80;;;;;;4970632;28;20034;-60
2022/02/15 09:43:44;;;;;;;43.70;27.08;;;410.20;1766.40;;;;;;4970590;28;20082;-61
2022/02/15 09:46:13;;;;;;;19.45;11.35;;;410.30;1792.00;;;;;;4967810;28;20104;-61
2022/02/15 09:48:40;;;;;;;43.63;28.80;;;409.90;1792.00;;;;;;4978936;28;20027;-62
2022/02/15 09:51:07;;;;;;;21.92;15.68;;;409.70;1792.00;;;;;;4976837;28;20038;-59
2022/02/15 09:53:33;;;;;;;28.08;22.50;;;384.90;1792.00;;;;;;4971506;28;20110;-59
2022/02/15 09:55:59;;;;;;;16.60;14.40;;;384.80;1792.00;;;;;;4971663;28;20030;-61
2022/02/15 09:58:25;;;;;;;31.33;22.55;;;384.70;1792.00;;;;;;4971373;28;20030;-61
2022/02/15 10:00:52;;;;;;;80.57;66.75;;;384.70;1817.60;;;;;;4971647;28;20073;-61
2022/02/15 10:03:19;;;;;;;24.00;19.17;;;384.60;1817.60;;;;;;4971503;28;20038;-59
2022/02/15 10:05:49;;;;;;;23.02;15.88;;;384.60;1817.60;;;;;;4978111;28;20026;-59
2022/02/15 10:08:28;;;;;;;20.50;17.55;;;384.60;1817.60;;;;;;4969213;28;20038;-61
2022/02/15 10:10:55;;;;;;;18.10;14.52;;;384.40;1817.60;;;;;;4977862;28;20381;-59
2022/02/15 10:13:21;;;;;;;15.50;12.00;;;384.50;1817.60;;;;;;4970008;28;20469;-67
2022/02/15 10:15:49;;;;;;;9.85;7.07;;;384.60;1817.60;;;;;;4971160;28;20081;-69
2022/02/15 10:18:27;;;;;;;12.65;10.10;;;384.60;1817.60;;;;;;4969113;28;20066;-66
2022/02/15 10:20:56;;;;;;;21.88;14.30;;;384.70;1817.60;;;;;;4969487;28;20038;-70
2022/02/15 10:23:29;;;;;;;24.95;16.05;;;384.80;1843.20;;;;;;4970263;28;20030;-66
2022/02/15 10:25:56;;;;;;;9.25;5.68;;;409.60;1843.20;;;;;;4969981;28;20085;-64
2022/02/15 10:28:29;;;;;;;19.02;10.38;;;409.60;1817.60;;;;;;4969678;28;20054;-59
2022/02/15 10:30:57;;;;;;;12.55;8.07;;;409.60;1817.60;;;;;;4969453;28;20031;-61
2022/02/15 10:33:34;;;;;;;14.55;10.43;;;409.70;1817.60;;;;;;4969858;28;20041;-60
2022/02/15 10:36:11;;;;;;;27.40;17.35;;;409.70;1792.00;;;;;;4975397;28;20022;-59
2022/02/15 10:38:42;;;;;;;22.83;14.45;;;409.80;1766.40;;;;;;4976051;28;20074;-64
2022/02/15 10:41:10;;;;;;;26.67;19.40;;;409.90;1766.40;;;;;;4976042;28;20114;-61
2022/02/15 10:43:51;;;;;;;68.82;48.70;;;410.00;1740.80;;;;;;4975614;28;20030;-59
2022/02/15 10:46:18;;;;;;;16.50;8.75;;;410.00;1766.40;;;;;;4975726;28;20485;-61
2022/02/15 10:48:45;;;;;;;17.40;13.02;;;410.20;1792.00;;;;;;4976076;28;20045;-61
2022/02/15 10:51:12;;;;;;;8.95;6.43;;;410.20;1740.80;;;;;;4975976;28;20030;-60
2022/02/15 10:53:38;;;;;;;34.70;20.30;;;410.20;1766.40;;;;;;4975810;28;20037;-60
2022/02/15 10:56:04;;;;;;;41.88;26.27;;;410.20;1766.40;;;;;;4975825;28;20031;-60
2022/02/15 10:58:32;;;;;;;21.52;13.10;;;410.20;1740.80;;;;;;4975654;28;20073;-65
2022/02/15 11:00:59;;;;;;;22.90;14.20;;;410.20;1715.20;;;;;;4975898;28;20089;-62
2022/02/15 11:03:30;;;;;;;20.60;13.75;;;410.20;1715.20;;;;;;4975988;28;20086;-60
2022/02/15 11:05:56;;;;;;;12.63;8.75;;;410.20;1740.80;;;;;;4975906;28;20030;-61
2022/02/15 11:08:23;;;;;;;32.97;21.25;;;410.20;1740.80;;;;;;4975775;28;20093;-60
2022/02/15 11:10:55;;;;;;;69.50;44.35;;;410.30;1715.20;;;;;;4975354;28;20065;-59
2022/02/15 11:13:22;;;;;;;41.40;25.55;;;410.30;1740.80;;;;;;4975677;28;20093;-60
2022/02/15 11:15:52;;;;;;;46.33;32.05;;;410.30;1689.60;;;;;;4975589;28;20035;-62
2022/02/15 11:18:31;;;;;;;33.15;18.63;;;410.30;1689.60;;;;;;4975683;28;20027;-65
2022/02/15 11:21:00;;;;;;;25.55;18.88;;;410.50;1740.80;;;;;;4975666;28;20712;-60
2022/02/15 11:23:29;;;;;;;44.13;33.38;;;410.50;1740.80;;;;;;4975170;28;20033;-64
2022/02/15 11:26:10;;;;;;;23.45;17.58;;;410.50;1715.20;;;;;;4958374;28;20019;-60
2022/02/15 11:28:47;;;;;;;23.90;20.58;;;410.50;1689.60;;;;;;4975475;28;20401;-60
2022/02/15 11:31:27;;;;;;;21.88;16.02;;;435.20;1689.60;;;;;;4975755;28;20027;-63
2022/02/15 11:33:54;;;;;;;8.95;6.22;;;435.30;1664.00;;;;;;4975566;28;20031;-60
2022/02/15 11:36:23;;;;;;;11.98;8.23;;;435.30;1638.40;;;;;;4975337;28;20022;-59
2022/02/15 11:39:04;;;;;;;28.98;15.68;;;435.30;1638.40;;;;;;4975265;28;20061;-59
2022/02/15 11:41:42;;;;;;;7.32;4.07;;;435.30;1664.00;;;;;;4975632;28;20030;-62
2022/02/15 11:44:08;;;;;;;4.95;2.78;;;435.40;1664.00;;;;;;4975233;28;20030;-59
2022/02/15 11:46:36;;;;;;;5.00;2.95;;;435.40;1638.40;;;;;;4973682;28;20031;-63
2022/02/15 11:49:11;;;;;;;9.15;3.55;;;435.40;1638.40;;;;;;4972287;28;20073;-58
2022/02/15 11:51:38;;;;;;;4.00;2.53;;;435.30;1638.40;;;;;;4972072;28;20106;-60
2022/02/15 11:54:09;;;;;;;4.10;2.55;;;435.30;1638.40;;;;;;4971511;28;20735;-59
2022/02/15 11:56:36;;;;;;;9.70;4.68;;;435.50;1612.80;;;;;;4971117;28;20058;-60
2022/02/15 11:59:14;;;;;;;26.30;22.13;;;435.50;1638.40;;;;;;4968463;28;20019;-60
2022/02/15 12:01:42;;;;;;;46.70;28.15;;;435.60;1612.80;;;;;;4970568;28;20118;-59
2022/02/15 12:04:13;;;;;;;30.85;18.92;;;435.80;1587.20;;;;;;4970962;28;20027;-59
2022/02/15 12:06:42;;;;;;;18.52;12.85;;;435.90;1561.60;;;;;;4970540;28;20049;-61